createdAt,value
2023-02-14T00:24:30.201Z,99847.13
2023-02-14T00:54:34.732Z,99842.19
2023-02-14T01:24:38.827Z,99848.91
2023-02-14T01:54:46.221Z,99843.38
2023-02-14T02:24:54.656Z,99829.81
2023-02-14T02:55:01.571Z,99812.88
2023-02-14T03:25:12.987Z,99818.50
2023-02-14T03:55:21.485Z,99807.88
2023-02-14T04:25:25.545Z,99814.47
2023-02-14T04:55:30.075Z,99814.47
2023-02-14T05:25:34.452Z,99808.41
2023-02-14T05:55:38.397Z,99800.38
2023-02-14T06:25:43.265Z,99799.16
2023-02-14T06:55:47.876Z,99802.47
2023-02-14T07:25:52.038Z,99809.50
2023-02-14T07:55:56.304Z,99803.28
2023-02-14T08:26:00.481Z,99805.44
2023-02-14T08:56:05.515Z,99810.69
2023-02-14T09:26:14.279Z,99817.31
2023-02-14T09:56:23.576Z,99828.78
2023-02-14T10:26:33.202Z,99824.09
2023-02-14T10:56:39.780Z,99806.84
2023-02-14T11:26:49.041Z,99782.19
2023-02-14T11:56:56.947Z,99743.75
2023-02-14T12:27:12.021Z,99705.66
2023-02-14T12:57:28.542Z,99682.66
2023-02-14T13:27:34.494Z,99642.19
2023-02-14T13:57:41.386Z,99631.84
2023-02-14T14:27:47.008Z,99603.09
2023-02-14T14:57:54.004Z,99591.81
2023-02-14T15:27:58.786Z,99564.66
2023-02-14T15:58:04.635Z,99567.22
2023-02-14T16:28:09.185Z,99556.91
2023-02-14T16:58:15.218Z,99571.19
2023-02-14T17:28:19.496Z,99585.28
2023-02-14T17:58:25.491Z,99575.22
2023-02-14T18:28:30.220Z,99565.63
2023-02-14T18:58:37.658Z,99535.22
2023-02-14T19:28:46.428Z,99535.09
2023-02-14T19:58:52.173Z,99493.09
2023-02-14T20:29:01.289Z,99482.09
2023-02-14T20:59:10.978Z,99460.19
2023-02-14T21:29:15.219Z,99445.91
2023-02-14T21:59:19.590Z,99435.44
2023-02-14T22:29:23.773Z,99429.88
2023-02-14T22:59:28.414Z,99410.03
2023-02-14T23:29:32.805Z,99401.25
2023-02-14T23:59:36.926Z,99391.16
